createdAt,value
2023-04-02T00:00:10.378Z,99476.09
2023-04-02T00:03:15.411Z,99478.84
2023-04-02T00:06:30.427Z,99478.25
2023-04-02T00:09:37.130Z,99473.00
2023-04-02T00:12:39.650Z,99480.09
2023-04-02T00:15:46.791Z,99476.34
2023-04-02T00:18:53.219Z,99479.22
2023-04-02T00:21:57.403Z,99484.00
2023-04-02T00:25:02.658Z,99481.78
2023-04-02T00:28:05.000Z,99481.78
2023-04-02T00:31:10.585Z,99475.66
2023-04-02T00:34:28.048Z,99477.66
2023-04-02T00:37:39.132Z,99469.22
2023-04-02T00:40:42.451Z,99470.44
2023-04-02T00:43:57.849Z,99471.25
2023-04-02T00:47:12.106Z,99478.28
2023-04-02T00:50:15.542Z,99476.13
2023-04-02T00:53:25.843Z,99478.78
2023-04-02T00:56:33.268Z,99487.69
2023-04-02T00:59:43.231Z,99485.03
2023-04-02T01:03:13.145Z,99479.62
2023-04-02T01:06:18.804Z,99488.13
2023-04-02T01:09:53.203Z,99487.03
2023-04-02T01:13:01.570Z,99485.50
2023-04-02T01:16:22.830Z,99491.88
2023-04-02T01:20:08.001Z,99492.59
2023-04-02T01:23:13.450Z,99503.44
2023-04-02T01:26:45.799Z,99501.91
2023-04-02T01:30:01.425Z,99497.66
2023-04-02T01:33:05.668Z,99496.34
2023-04-02T01:36:24.055Z,99495.78
2023-04-02T01:39:45.368Z,99499.84
2023-04-02T01:43:29.574Z,99502.69
2023-04-02T01:46:34.482Z,99510.75
2023-04-02T01:49:36.999Z,99511.13
2023-04-02T01:52:45.123Z,99515.06
2023-04-02T01:55:54.874Z,99517.72
2023-04-02T01:58:59.236Z,99518.03
2023-04-02T02:02:05.948Z,99514.00
2023-04-02T02:05:19.185Z,99514.25
2023-04-02T02:08:39.317Z,99512.38
2023-04-02T02:11:42.540Z,99517.16
2023-04-02T02:14:52.391Z,99514.19
2023-04-02T02:18:00.954Z,99511.47
2023-04-02T02:21:07.810Z,99511.22
2023-04-02T02:24:20.848Z,99515.28
2023-04-02T02:27:23.121Z,99513.16
2023-04-02T02:30:44.784Z,99526.00
2023-04-02T02:33:53.084Z,99515.28
2023-04-02T02:37:02.576Z,99525.16
2023-04-02T02:40:13.010Z,99515.72
2023-04-02T02:43:17.450Z,99519.91
2023-04-02T02:46:23.802Z,99521.97
2023-04-02T02:49:31.609Z,99523.06
2023-04-02T02:52:39.196Z,99523.72
2023-04-02T02:55:43.066Z,99522.63
2023-04-02T02:58:46.271Z,99528.84
2023-04-02T03:01:49.703Z,99526.69
2023-04-02T03:04:54.986Z,99530.56
2023-04-02T03:07:59.406Z,99523.88
2023-04-02T03:11:09.336Z,99538.72
2023-04-02T03:14:24.066Z,99538.84
2023-04-02T03:17:34.585Z,99529.81
2023-04-02T03:20:48.340Z,99539.00
2023-04-02T03:24:03.523Z,99540.44
2023-04-02T03:27:29.112Z,99528.69
2023-04-02T03:30:54.249Z,99533.44
2023-04-02T03:34:02.006Z,99529.56
2023-04-02T03:37:22.525Z,99534.22
2023-04-02T03:40:31.822Z,99529.53
2023-04-02T03:43:40.738Z,99533.59
2023-04-02T03:46:57.426Z,99528.69
2023-04-02T03:50:06.390Z,99527.84
2023-04-02T03:53:09.443Z,99532.59
2023-04-02T03:56:40.396Z,99537.25
2023-04-02T03:59:59.137Z,99539.09
2023-04-02T04:03:23.073Z,99546.31
2023-04-02T04:06:29.871Z,99539.97
2023-04-02T04:09:37.097Z,99536.03
2023-04-02T04:12:44.383Z,99548.28
2023-04-02T04:15:57.862Z,99551.72
2023-04-02T04:19:07.064Z,99555.41
2023-04-02T04:22:30.316Z,99560.03
2023-04-02T04:25:34.371Z,99567.22
2023-04-02T04:29:05.759Z,99565.63
2023-04-02T04:32:34.109Z,99561.44
2023-04-02T04:35:40.296Z,99571.94
2023-04-02T04:38:55.266Z,99565.53
2023-04-02T04:42:02.668Z,99571.56
2023-04-02T04:45:28.815Z,99569.38
2023-04-02T04:48:46.306Z,99574.53
2023-04-02T04:51:54.863Z,99589.81
2023-04-02T04:54:57.918Z,99585.56
2023-04-02T04:58:33.704Z,99588.06
2023-04-02T05:01:52.694Z,99583.81
2023-04-02T05:04:57.315Z,99589.31
2023-04-02T05:08:15.888Z,99577.44
2023-04-02T05:11:32.225Z,99576.72
2023-04-02T05:14:48.249Z,99574.00
2023-04-02T05:17:59.782Z,99589.22
2023-04-02T05:21:14.360Z,99583.06
2023-04-02T05:24:33.395Z,99579.53
2023-04-02T05:27:38.335Z,99586.62
2023-04-02T05:30:49.255Z,99589.50
2023-04-02T05:33:55.058Z,99592.78
2023-04-02T05:36:58.644Z,99586.16
2023-04-02T05:40:13.527Z,99591.09
2023-04-02T05:43:19.820Z,99588.87
2023-04-02T05:46:28.040Z,99593.56
2023-04-02T05:49:46.022Z,99612.69
2023-04-02T05:52:57.089Z,99605.37
2023-04-02T05:56:18.795Z,99608.41
2023-04-02T05:59:37.584Z,99608.12
2023-04-02T06:02:45.477Z,99619.25
2023-04-02T06:05:49.112Z,99616.84
2023-04-02T06:09:00.845Z,99620.84
2023-04-02T06:12:16.022Z,99623.69
2023-04-02T06:15:22.195Z,99633.88
2023-04-02T06:18:27.635Z,99629.34
2023-04-02T06:21:29.979Z,99620.75
2023-04-02T06:24:34.287Z,99617.00
2023-04-02T06:27:41.928Z,99624.12
2023-04-02T06:30:45.864Z,99631.38
2023-04-02T06:33:52.273Z,99627.63
2023-04-02T06:36:59.384Z,99643.53
2023-04-02T06:40:05.591Z,99638.09
2023-04-02T06:43:33.403Z,99644.75
2023-04-02T06:46:49.930Z,99639.38
2023-04-02T06:50:03.989Z,99633.84
2023-04-02T06:53:11.951Z,99648.63
2023-04-02T06:56:37.388Z,99648.44
2023-04-02T06:59:39.972Z,99654.56
2023-04-02T07:02:43.192Z,99662.09
2023-04-02T07:05:46.082Z,99660.78
2023-04-02T07:08:49.477Z,99653.94
2023-04-02T07:11:52.070Z,99657.34
2023-04-02T07:14:55.092Z,99662.53
2023-04-02T07:17:59.668Z,99645.59
2023-04-02T07:21:02.631Z,99665.75
2023-04-02T07:24:06.113Z,99664.91
2023-04-02T07:27:11.033Z,99658.66
2023-04-02T07:30:13.367Z,99666.25
2023-04-02T07:33:18.137Z,99666.16
2023-04-02T07:36:23.573Z,99667.66
2023-04-02T07:39:26.328Z,99667.31
2023-04-02T07:42:28.617Z,99666.78
2023-04-02T07:45:31.525Z,99668.09
2023-04-02T07:48:33.788Z,99682.91
2023-04-02T07:51:37.067Z,99675.78
2023-04-02T07:54:39.851Z,99674.19
2023-04-02T07:57:51.756Z,99691.47
2023-04-02T08:00:54.213Z,99682.13
2023-04-02T08:03:57.904Z,99684.66
2023-04-02T08:07:01.692Z,99688.47
2023-04-02T08:10:04.582Z,99698.22
2023-04-02T08:13:06.770Z,99700.03
2023-04-02T08:16:09.694Z,99697.72
2023-04-02T08:19:11.992Z,99708.94
2023-04-02T08:22:14.635Z,99716.72
2023-04-02T08:25:17.336Z,99717.97
2023-04-02T08:28:21.305Z,99718.63
2023-04-02T08:31:23.623Z,99720.41
2023-04-02T08:34:26.366Z,99719.87
2023-04-02T08:37:28.582Z,99725.16
2023-04-02T08:40:38.935Z,99721.94
2023-04-02T08:43:59.077Z,99729.16
2023-04-02T08:47:05.160Z,99722.00
2023-04-02T08:50:15.333Z,99718.22
2023-04-02T08:53:23.078Z,99723.28
2023-04-02T08:56:36.947Z,99714.81
2023-04-02T08:59:41.665Z,99727.47
2023-04-02T09:02:49.595Z,99736.38
2023-04-02T09:05:53.229Z,99736.72
2023-04-02T09:08:57.090Z,99742.25
2023-04-02T09:12:04.514Z,99729.84
2023-04-02T09:15:35.572Z,99735.16
2023-04-02T09:18:39.479Z,99735.81
2023-04-02T09:21:46.970Z,99738.56
2023-04-02T09:24:57.870Z,99730.00
2023-04-02T09:28:05.116Z,99734.06
2023-04-02T09:31:22.307Z,99739.06
2023-04-02T09:34:28.578Z,99744.75
2023-04-02T09:37:31.095Z,99751.72
2023-04-02T09:40:51.102Z,99747.81
2023-04-02T09:44:12.859Z,99745.97
2023-04-02T09:47:26.408Z,99756.09
2023-04-02T09:50:32.488Z,99749.81
2023-04-02T09:53:38.680Z,99763.44
2023-04-02T09:57:04.609Z,99752.72
2023-04-02T10:00:30.642Z,99750.78
2023-04-02T10:03:35.028Z,99758.56
2023-04-02T10:06:37.392Z,99754.72
2023-04-02T10:09:40.024Z,99760.69
2023-04-02T10:12:46.162Z,99773.75
2023-04-02T10:16:04.164Z,99764.87
2023-04-02T10:19:06.516Z,99756.03
2023-04-02T10:22:32.528Z,99764.41
2023-04-02T10:25:42.255Z,99762.19
2023-04-02T10:28:53.278Z,99762.28
2023-04-02T10:32:14.235Z,99763.00
2023-04-02T10:35:29.024Z,99758.06
2023-04-02T10:39:12.143Z,99761.06
2023-04-02T10:42:33.250Z,99760.91
2023-04-02T10:45:50.774Z,99757.28
2023-04-02T10:48:59.842Z,99756.31
2023-04-02T10:52:13.524Z,99754.84
2023-04-02T10:55:25.444Z,99761.38
2023-04-02T10:58:31.799Z,99765.44
2023-04-02T11:01:35.359Z,99760.72
2023-04-02T11:04:44.099Z,99761.16
2023-04-02T11:08:13.632Z,99754.59
2023-04-02T11:11:22.631Z,99764.03
2023-04-02T11:14:32.803Z,99763.47
2023-04-02T11:17:35.138Z,99743.81
2023-04-02T11:20:57.574Z,99739.00
2023-04-02T11:24:01.936Z,99742.13
2023-04-02T11:27:10.491Z,99733.06
2023-04-02T11:30:15.921Z,99734.69
2023-04-02T11:33:44.766Z,99733.50
2023-04-02T11:36:52.622Z,99731.09
2023-04-02T11:39:58.220Z,99729.09
2023-04-02T11:43:33.497Z,99724.19
2023-04-02T11:46:40.293Z,99724.44
2023-04-02T11:49:54.874Z,99729.63
2023-04-02T11:53:15.855Z,99735.91
2023-04-02T11:56:40.673Z,99738.72
2023-04-02T11:59:50.686Z,99732.09
2023-04-02T12:03:25.825Z,99733.00
2023-04-02T12:06:59.923Z,99733.87
2023-04-02T12:10:05.893Z,99722.41
2023-04-02T12:13:19.500Z,99720.47
2023-04-02T12:16:22.964Z,99711.03
2023-04-02T12:19:26.619Z,99715.69
2023-04-02T12:22:31.915Z,99723.38
2023-04-02T12:25:40.360Z,99715.97
2023-04-02T12:28:46.378Z,99707.12
2023-04-02T12:31:49.015Z,99708.91
2023-04-02T12:34:52.612Z,99701.25
2023-04-02T12:37:55.373Z,99700.56
2023-04-02T12:41:06.376Z,99697.72
2023-04-02T12:44:17.377Z,99696.03
2023-04-02T12:47:19.591Z,99703.22
2023-04-02T12:50:22.958Z,99691.22
2023-04-02T12:53:39.074Z,99692.12
2023-04-02T12:56:41.635Z,99688.03
2023-04-02T12:59:44.073Z,99689.47
2023-04-02T13:02:50.380Z,99695.72
2023-04-02T13:05:57.432Z,99693.59
2023-04-02T13:09:02.118Z,99696.97
2023-04-02T13:12:04.657Z,99689.56
2023-04-02T13:15:37.076Z,99689.34
2023-04-02T13:18:39.335Z,99693.50
2023-04-02T13:21:41.951Z,99693.28
2023-04-02T13:24:44.382Z,99692.16
2023-04-02T13:27:46.994Z,99688.53
2023-04-02T13:30:49.517Z,99687.84
2023-04-02T13:33:52.037Z,99690.22
2023-04-02T13:36:55.080Z,99695.66
2023-04-02T13:39:57.391Z,99706.06
2023-04-02T13:42:59.812Z,99694.28
2023-04-02T13:46:06.042Z,99702.25
2023-04-02T13:49:10.478Z,99700.78
2023-04-02T13:52:17.004Z,99700.03
2023-04-02T13:55:23.049Z,99704.94
2023-04-02T13:58:25.668Z,99700.84
2023-04-02T14:01:27.975Z,99700.28
2023-04-02T14:04:35.279Z,99698.25
2023-04-02T14:07:58.092Z,99698.88
2023-04-02T14:11:25.102Z,99694.31
2023-04-02T14:15:01.469Z,99698.41
2023-04-02T14:18:26.052Z,99687.06
2023-04-02T14:21:34.227Z,99690.88
2023-04-02T14:24:57.063Z,99704.97
2023-04-02T14:28:10.364Z,99701.75
2023-04-02T14:31:25.727Z,99702.81
2023-04-02T14:34:33.832Z,99691.94
2023-04-02T14:37:55.254Z,99722.00
2023-04-02T14:41:04.680Z,99722.12
2023-04-02T14:44:08.618Z,99720.34
2023-04-02T14:47:18.986Z,99743.25
2023-04-02T14:50:28.005Z,99745.28
2023-04-02T14:53:44.076Z,99757.00
2023-04-02T14:56:54.506Z,99754.41
2023-04-02T15:00:02.647Z,99756.81
2023-04-02T15:03:12.371Z,99763.41
2023-04-02T15:06:23.492Z,99762.16
2023-04-02T15:09:35.607Z,99771.87
2023-04-02T15:12:41.134Z,99783.06
2023-04-02T15:15:54.249Z,99789.81
2023-04-02T15:18:58.470Z,99787.50
2023-04-02T15:22:14.266Z,99801.75
2023-04-02T15:25:42.726Z,99793.72
2023-04-02T15:29:31.552Z,99817.50
2023-04-02T15:32:39.035Z,99864.72
2023-04-02T15:35:51.140Z,99861.03
2023-04-02T15:39:18.414Z,99868.75
2023-04-02T15:42:28.560Z,99857.56
2023-04-02T15:45:51.791Z,99856.25
2023-04-02T15:49:03.165Z,99864.78
2023-04-02T15:52:12.332Z,99850.09
2023-04-02T15:55:34.593Z,99850.72
2023-04-02T15:59:08.453Z,99838.78
2023-04-02T16:02:23.169Z,99839.03
2023-04-02T16:05:47.281Z,99836.72
2023-04-02T16:08:57.047Z,99828.78
2023-04-02T16:12:15.526Z,99831.16
2023-04-02T16:15:25.825Z,99820.16
2023-04-02T16:18:43.346Z,99819.41
2023-04-02T16:21:58.734Z,99813.81
2023-04-02T16:25:13.477Z,99828.34
2023-04-02T16:28:28.276Z,99831.91
2023-04-02T16:31:59.050Z,99846.38
2023-04-02T16:35:42.805Z,99835.94
2023-04-02T16:38:52.355Z,99848.69
2023-04-02T16:42:24.327Z,99844.75
2023-04-02T16:45:33.270Z,99849.97
2023-04-02T16:48:41.038Z,99861.38
2023-04-02T16:52:14.158Z,99866.94
2023-04-02T16:55:41.042Z,99881.75
2023-04-02T16:59:22.985Z,99882.72
2023-04-02T17:02:54.683Z,99887.09
2023-04-02T17:06:14.622Z,99890.12
2023-04-02T17:09:28.189Z,99894.56
2023-04-02T17:12:39.740Z,99899.56
2023-04-02T17:15:45.824Z,99905.34
2023-04-02T17:18:52.270Z,99920.50
2023-04-02T17:21:59.386Z,99918.09
2023-04-02T17:25:04.245Z,99917.16
2023-04-02T17:28:12.521Z,99918.47
2023-04-02T17:31:27.101Z,99925.59
2023-04-02T17:34:29.554Z,99938.84
2023-04-02T17:37:43.352Z,99933.41
2023-04-02T17:40:55.746Z,99947.31
2023-04-02T17:44:23.518Z,99935.28
2023-04-02T17:47:38.692Z,99938.28
2023-04-02T17:50:53.956Z,99942.03
2023-04-02T17:54:06.859Z,99949.59
2023-04-02T17:57:09.339Z,99957.91
2023-04-02T18:00:35.263Z,99959.44
2023-04-02T18:03:40.998Z,99956.88
2023-04-02T18:06:46.044Z,99967.62
2023-04-02T18:10:21.830Z,99970.00
2023-04-02T18:13:55.287Z,99987.41
2023-04-02T18:17:34.410Z,99991.41
2023-04-02T18:21:06.906Z,99990.84
2023-04-02T18:24:18.344Z,100003.00
2023-04-02T18:27:35.048Z,100011.69
2023-04-02T18:30:57.118Z,100011.25
2023-04-02T18:34:04.533Z,100023.06
2023-04-02T18:37:29.711Z,100028.19
2023-04-02T18:40:50.000Z,100025.53
2023-04-02T18:44:29.610Z,100038.22
2023-04-02T18:47:47.196Z,100049.47
2023-04-02T18:50:50.071Z,100055.81
2023-04-02T18:54:25.281Z,100049.78
2023-04-02T18:57:34.239Z,100059.22
2023-04-02T19:00:41.666Z,100056.06
2023-04-02T19:03:50.208Z,100065.56
2023-04-02T19:07:02.714Z,100070.72
2023-04-02T19:10:20.552Z,100068.09
2023-04-02T19:13:22.779Z,100087.22
2023-04-02T19:16:43.903Z,100073.59
2023-04-02T19:20:06.475Z,100071.69
2023-04-02T19:23:43.818Z,100081.00
2023-04-02T19:27:07.569Z,100083.56
2023-04-02T19:30:28.935Z,100096.88
2023-04-02T19:33:39.745Z,100093.38
2023-04-02T19:36:46.642Z,100093.81
2023-04-02T19:40:16.786Z,100103.19
2023-04-02T19:43:19.508Z,100117.12
2023-04-02T19:46:23.602Z,100118.16
2023-04-02T19:49:33.599Z,100121.31
2023-04-02T19:52:36.357Z,100116.16
2023-04-02T19:55:40.352Z,100119.94
2023-04-02T19:58:42.578Z,100133.78
2023-04-02T20:01:45.691Z,100141.56
2023-04-02T20:04:48.169Z,100137.12
2023-04-02T20:07:50.406Z,100143.66
2023-04-02T20:10:52.969Z,100147.78
2023-04-02T20:13:55.335Z,100160.13
2023-04-02T20:16:57.963Z,100164.25
2023-04-02T20:20:00.372Z,100165.00
2023-04-02T20:23:02.951Z,100168.12
2023-04-02T20:26:05.579Z,100167.78
2023-04-02T20:29:08.136Z,100177.28
2023-04-02T20:32:10.814Z,100176.44
2023-04-02T20:35:13.316Z,100182.38
2023-04-02T20:38:15.668Z,100192.72
2023-04-02T20:41:19.122Z,100185.66
2023-04-02T20:44:21.813Z,100189.63
2023-04-02T20:47:24.474Z,100195.09
2023-04-02T20:50:26.861Z,100196.19
2023-04-02T20:53:31.027Z,100206.84
2023-04-02T20:56:33.365Z,100222.66
2023-04-02T20:59:35.885Z,100228.69
2023-04-02T21:02:38.167Z,100237.06
2023-04-02T21:05:45.948Z,100245.38
2023-04-02T21:08:49.312Z,100237.56
2023-04-02T21:11:51.672Z,100240.84
2023-04-02T21:14:58.130Z,100261.84
2023-04-02T21:18:01.871Z,100248.38
2023-04-02T21:21:05.820Z,100250.81
2023-04-02T21:24:09.480Z,100259.88
2023-04-02T21:27:12.443Z,100254.59
2023-04-02T21:30:14.927Z,100268.06
2023-04-02T21:33:17.139Z,100255.62
2023-04-02T21:36:22.851Z,100270.97
2023-04-02T21:39:25.300Z,100269.81
2023-04-02T21:42:27.840Z,100270.44
2023-04-02T21:45:30.153Z,100272.03
2023-04-02T21:48:32.727Z,100276.19
2023-04-02T21:51:36.604Z,100278.91
2023-04-02T21:54:39.110Z,100287.78
2023-04-02T21:57:41.369Z,100291.34
2023-04-02T22:00:43.866Z,100294.47
2023-04-02T22:03:46.586Z,100297.13
2023-04-02T22:06:52.507Z,100301.22
2023-04-02T22:09:54.989Z,100300.56
2023-04-02T22:12:58.212Z,100303.19
2023-04-02T22:16:03.616Z,100313.06
2023-04-02T22:19:10.565Z,100314.72
2023-04-02T22:22:13.012Z,100317.03
2023-04-02T22:25:15.695Z,100321.56
2023-04-02T22:28:18.234Z,100322.97
2023-04-02T22:31:23.238Z,100322.22
2023-04-02T22:34:25.816Z,100326.66
2023-04-02T22:37:28.974Z,100331.34
2023-04-02T22:40:31.517Z,100335.97
2023-04-02T22:43:34.604Z,100341.81
2023-04-02T22:46:37.268Z,100343.22
2023-04-02T22:49:39.622Z,100340.66
2023-04-02T22:52:42.703Z,100350.28
2023-04-02T22:55:45.161Z,100347.34
2023-04-02T22:58:48.386Z,100354.41
2023-04-02T23:01:50.608Z,100353.09
2023-04-02T23:04:53.195Z,100355.63
2023-04-02T23:07:55.472Z,100362.50
2023-04-02T23:11:16.400Z,100356.56
2023-04-02T23:14:18.655Z,100362.13
2023-04-02T23:17:21.197Z,100374.34
2023-04-02T23:20:23.396Z,100375.87
2023-04-02T23:23:26.120Z,100375.72
2023-04-02T23:26:31.150Z,100381.75
2023-04-02T23:29:33.710Z,100383.19
2023-04-02T23:32:36.137Z,100381.31
2023-04-02T23:35:38.816Z,100382.38
2023-04-02T23:38:41.250Z,100380.19
2023-04-02T23:41:43.742Z,100375.59
2023-04-02T23:44:46.057Z,100381.03
2023-04-02T23:47:48.566Z,100385.28
2023-04-02T23:50:50.787Z,100392.56
2023-04-02T23:53:55.416Z,100395.56
2023-04-02T23:56:57.615Z,100397.97
